EW3165 Weather Reports


Display with metric or nautical units.
time (UTC)temp
F
wind
direction
speed
MPH
gust
MPH
rain 1hr
in
rain 24hr
in
rain mn
in
humidity
%
barometer
mb
20190117072200 49 309 3.0 8.0 0.43 2.19 2.17 93 1008.3
20190117071159 49 165 2.0 6.0 0.43 2.12 2.09 93 1006.2
20190117070200 50 169 4.0 19.0 0.36 2.02 2.00 93 1007.0
20190117065200 50 141 7.0 20.0 0.32 1.95 1.92 92 1007.9
20190117064200 50 217 5.0 12.0 0.29 1.89 1.86 92 1007.7
20190117063200 50 255 7.0 19.0 0.29 1.85 1.81 91 1008.1
20190117062200 50 148 9.0 25.0 0.28 1.77 1.73 91 1007.7
20190117061201 50 165 9.0 22.0 0.25 1.71 1.67 91 1007.8
20190117060200 50 172 7.0 22.0 0.26 1.68 1.63 91 1007.7
20190117055201 50 124 9.0 22.0 0.23 1.66 1.61 91 1008.3
20190117054200 50 225 9.0 29.0 0.22 1.64 1.57 90 1008.3
20190117053201 50 149 9.0 25.0 0.17 1.61 1.52 90 1008.2
20190117052200 50 207 9.0 21.0 0.11 1.55 1.45 90 1007.9
20190117051200 50 97 10.0 28.0 0.07 1.53 1.41 89 1008.1
20190117050201 50 99 8.0 18.0 0.03 1.50 1.38 89 1007.8
20190117045200 50 113 6.0 20.0 0.03 1.51 1.37 88 1007.7
20190117044201 50 129 6.0 15.0 0.01 1.50 1.35 88 1007.8
20190117043200 50 131 8.0 25.0 0.02 1.50 1.35 87 1008.1
20190117042200 50 143 9.0 25.0 0.02 1.49 1.34 86 1007.9
20190117041201 49 95 10.0 32.0 0.03 1.50 1.34 87 1007.8
20190117040200 49 169 9.0 25.0 0.05 1.53 1.34 87 1008.1
20190117035200 49 120 10.0 27.0 0.06 1.54 1.34 88 1007.7
20190117034200 49 91 10.0 23.0 0.06 1.56 1.34 88 1008.3
20190117033201 48 306 10.0 24.0 0.06 1.56 1.33 88 1008.5
20190117032200 48 197 10.0 29.0 0.06 1.55 1.32 89 1008.8
20190117031200 48 132 9.0 24.0 0.05 1.54 1.31 89 1008.7
20190117030200 48 123 10.0 28.0 0.04 1.53 1.29 89 1008.5
20190117025201 48 97 11.0 26.0 0.05 1.58 1.28 89 1009.0
20190117023159 48 157 11.0 31.0 0.07 1.66 1.27 89 1009.0
20190117022158 48 217 11.0 29.0 0.08 1.66 1.26 88 1009.2
20190117021157 48 141 10.0 21.0 0.08 1.69 1.26 89 1009.2
20190117020158 48 224 11.0 29.0 0.08 1.70 1.25 89 1009.5
20190117015159 48 130 9.0 23.0 0.08 1.71 1.23 89 1009.7
20190117014159 48 94 10.0 38.0 0.10 1.70 1.20 88 1009.6
20190117013200 47 84 8.0 20.0 0.14 1.73 1.20 88 1009.5
20190117012158 47 156 11.0 28.0 0.18 1.74 1.19 88 1009.6
20190117011159 47 68 8.0 22.0 0.21 1.77 1.18 89 1009.6
20190117010156 47 98 7.0 19.0 0.25 1.78 1.17 89 1009.9
20190117005157 46 118 6.0 22.0 0.28 1.78 1.15 90 1010.2
20190117004156 46 89 3.0 9.0 0.28 1.74 1.11 90 1010.7
20190117003156 46 140 4.0 10.0 0.29 1.73 1.06 89 1011.0
20190117002156 47 129 4.0 13.0 0.27 1.69 1.00 89 1011.1
20190117001155 47 145 3.0 8.0 0.29 1.70 0.97 89 1011.3
20190117000157 47 128 4.0 15.0 0.28 1.68 0.92 88 1011.2
20190116235157 47 117 3.0 10.0 0.24 1.65 0.87 88 1010.8
20190116234157 47 201 2.0 5.0 0.22 1.61 0.82 89 1010.8
20190116233200 47 121 2.0 7.0 0.20 1.58 0.77 88 1011.3
20190116232155 47 231 2.0 7.0 0.16 1.55 0.72 87 1011.4
20190116231156 48 216 5.0 15.0 0.15 1.52 0.68 85 1011.0
20190116230156 48 191 5.0 14.0 0.13 1.50 0.64 83 1010.3
20190116225156 48 115 5.0 12.0 0.13 1.51 0.63 83 1010.2
20190116224156 49 144 6.0 16.0 0.10 1.50 0.60 81 1010.2
20190116223156 49 114 5.0 13.0 0.08 1.49 0.57 80 1010.3
20190116222157 49 240 5.0 13.0 0.07 1.50 0.56 80 1011.2
20190116221156 50 124 5.0 11.0 0.04 1.48 0.53 77 1011.7
20190116220156 51 214 5.0 16.0 0.02 1.48 0.51 72 1011.2
20190116215156 52 194 8.0 22.0 0.01 1.48 0.50 69 1011.4
20190116214157 53 135 8.0 18.0 0.01 1.50 0.50 67 1010.7
20190116213156 54 69 7.0 17.0 0.00 1.50 0.49 61 1010.8
20190116212156 53 167 7.0 15.0 0.00 1.52 0.49 63 1010.8
20190116211155 54 176 8.0 19.0 0.00 1.52 0.49 62 1011.0
20190116210155 54 128 6.0 18.0 0.00 1.54 0.49 64 1011.5
20190116205155 54 224 6.0 19.0 0.00 1.56 0.49 62 1011.7
20190116204156 54 163 7.0 15.0 0.00 1.57 0.49 63 1011.7
20190116203157 53 100 7.0 16.0 0.00 1.58 0.49 66 1011.7
20190116202158 53 96 6.0 19.0 0.00 1.60 0.49 68 1011.8
20190116201153 52 138 7.0 19.0 0.00 1.61 0.49 71 1012.4
20190116200154 52 195 5.0 13.0 0.00 1.63 0.49 72 1012.6
20190116195154 52 214 6.0 14.0 0.00 1.65 0.49 72 1012.9
20190116194156 52 105 5.0 12.0 0.00 1.67 0.49 73 1013.4
20190116193155 52 111 6.0 12.0 0.00 1.69 0.49 74 1013.6
20190116192154 51 162 5.0 15.0 0.00 1.70 0.49 74 1014.0
20190116191155 51 132 4.0 13.0 0.00 1.72 0.49 75 1014.2
20190116190154 51 316 5.0 12.0 0.00 1.72 0.49 75 1014.7
20190116185155 51 162 6.0 19.0 0.00 1.72 0.49 75 1014.6
20190116184153 51 109 5.0 16.0 0.00 1.73 0.49 75 1014.4
20190116183154 51 165 6.0 15.0 0.00 1.74 0.49 76 1014.4
20190116182154 51 141 7.0 20.0 0.00 1.75 0.49 76 1014.5
20190116181154 51 138 7.0 17.0 0.00 1.76 0.49 77 1014.6
20190116180153 51 125 8.0 19.0 0.01 1.78 0.49 78 1014.4
20190116175153 50 64 7.0 16.0 0.01 1.79 0.49 78 1014.3
20190116174154 50 138 7.0 20.0 0.01 1.80 0.49 79 1014.2
20190116173154 50 82 7.0 17.0 0.01 1.80 0.49 80 1014.1
20190116172151 50 203 6.0 19.0 0.01 1.81 0.49 81 1014.5
20190116171152 49 156 5.0 17.0 0.01 1.81 0.49 81 1014.3
20190116170153 49 111 5.0 16.0 0.00 1.81 0.48 83 1014.3
20190116165152 49 215 5.0 14.0 0.00 1.82 0.48 83 1014.3
20190116164151 49 20 4.0 10.0 0.00 1.82 0.48 85 1013.9
20190116163151 48 111 5.0 16.0 0.00 1.82 0.48 85 1013.8
20190116162151 48 217 5.0 14.0 0.00 1.83 0.48 87 1013.8
20190116161152 48 144 5.0 12.0 0.00 1.83 0.48 88 1014.1
20190116160152 47 96 4.0 12.0 0.00 1.83 0.48 89 1014.2
20190116155151 48 215 4.0 11.0 0.01 1.83 0.48 89 1013.8
20190116154152 47 127 5.0 15.0 0.02 1.83 0.48 89 1013.8
20190116153151 47 119 6.0 20.0 0.03 1.83 0.48 90 1013.8
20190116152153 47 117 5.0 13.0 0.05 1.83 0.48 91 1013.9
20190116151153 47 127 5.0 11.0 0.06 1.83 0.48 92 1014.0
20190116150152 46 110 4.0 9.0 0.08 1.83 0.48 92 1014.1
20190116145152 46 197 3.0 11.0 0.09 1.82 0.47 92 1014.2
20190116144152 46 107 4.0 12.0 0.10 1.81 0.46 93 1014.2
20190116143153 46 117 3.0 9.0 0.10 1.80 0.45 93 1014.3
20190116142152 46 249 3.0 8.0 0.09 1.78 0.44 93 1014.2
20190116141152 46 191 4.0 13.0 0.11 1.77 0.42 93 1014.2
20190116140151 46 135 2.0 10.0 0.09 1.75 0.40 93 1014.2
20190116135150 46 167 1.0 6.0 0.08 1.73 0.39 92 1014.0
20190116134148 46 238 3.0 12.0 0.08 1.71 0.37 92 1013.8
20190116133149 46 215 4.0 10.0 0.12 1.70 0.35 92 1013.2
20190116132149 46 124 5.0 14.0 0.16 1.69 0.34 92 1013.2
20190116131149 46 219 5.0 17.0 0.14 1.66 0.31 92 1013.3
20190116130147 46 320 6.0 14.0 0.16 1.66 0.31 93 1013.2
20190116125149 46 89 4.0 12.0 0.18 1.65 0.30 93 1013.2
20190116124148 46 170 4.0 9.0 0.17 1.63 0.28 93 1013.2
20190116123148 46 160 4.0 11.0 0.13 1.58 0.23 92 1013.2
20190116122146 46 150 4.0 13.0 0.09 1.53 0.19 92 1013.2
20190116121145 46 139 4.0 10.0 0.09 1.52 0.17 92 1013.1
20190116120146 46 131 4.0 12.0 0.09 1.50 0.15 92 1013.0
20190116115146 46 163 4.0 12.0 0.07 1.47 0.12 92 1012.8
20190116114144 46 75 4.0 11.0 0.06 1.46 0.11 91 1012.9
20190116113143 46 128 4.0 12.0 0.05 1.45 0.10 92 1012.7
20190116112144 46 190 4.0 13.0 0.04 1.44 0.09 91 1012.7
20190116111144 46 198 4.0 14.0 0.03 1.43 0.08 91 1012.7
20190116110143 46 240 5.0 14.0 0.01 1.41 0.06 90 1013.0
20190116105144 46 127 5.0 15.0 0.00 1.40 0.05 90 1013.1
20190116104144 46 115 5.0 15.0 0.00 1.40 0.05 90 1013.1
20190116103141 46 120 5.0 10.0 0.00 1.40 0.05 90 1013.1
20190116102142 46 121 5.0 15.0 0.00 1.40 0.05 91 1013.1
20190116101142 46 152 4.0 13.0 0.00 1.40 0.05 91 1013.0
20190116100141 46 113 4.0 10.0 0.00 1.40 0.05 92 1013.0
20190116095141 46 80 3.0 13.0 0.00 1.40 0.05 92 1013.0
20190116094142 46 138 4.0 12.0 0.00 1.40 0.05 92 1012.8
20190116093142 46 198 5.0 14.0 0.00 1.40 0.05 92 1012.7
20190116092142 46 60 5.0 16.0 0.00 1.40 0.05 92 1012.6
20190116091142 46 129 4.0 10.0 0.03 1.40 0.05 92 1012.5
20190116090142 46 238 6.0 15.0 0.05 1.40 0.05 92 1012.5
20190116085140 46 86 5.0 13.0 0.06 1.40 0.05 93 1012.6
20190116084139 46 181 5.0 13.0 0.06 1.40 0.05 93 1012.5
20190116083140 46 210 3.0 13.0 0.06 1.40 0.05 93 1012.4
20190116082140 46 159 5.0 11.0 0.08 1.40 0.05 93 1012.2
20190116081139 46 231 3.0 13.0 0.05 1.37 0.02 92 1012.6
20190116080139 46 117 4.0 11.0 0.03 1.35 0.00 92 1012.4
20190116075140 46 214 4.0 14.0 0.02 1.34 1.34 92 1012.2
20190116074140 46 203 5.0 12.0 0.02 1.34 1.34 91 1012.2
20190116073140 46 238 6.0 18.0 0.03 1.34 1.34 91 1011.9